Amidon, North Dakota
Current Conditions -  °F | °C
As of 9:56 AM on Thursday 23 Oct 2014 (Local Time) from KDIK Reporting Station
Clear Clear  
Wind Chill: 56°   Ceiling: Unl
Heat Index: 56°   Visibility: 10mi
Dew Point: 32°   Wind: 8mph
Humidity: 40%   Direction: 260°W
Pressure: 29.88"   Gusts: NA
Location:  46.48°N, 103.32°W
Report Text: KDIK 231556Z AUTO 26007KT 10SM CLR 13/00 A2988 RMK AO2 SLP123 T01330000
Loading
Personal Weather Stations






























Interactive Weather Map
Tropical Storm Tracking
New forecast layout! Learn more

10-Day Weather Forecast

Advertisements
Track Severe Weather on mobile